Time;durP1;ratioP1;P1;durP2;ratioP2;P2;SDS_P1;SDS_P2;PMS_P1;PMS_P2;Temp;Humidity;BMP_temperature;BMP_pressure;BME280_temperature;BME280_humidity;BME280_pressure;Samples;Min_cycle;Max_cycle;Signal;HPM_P1;HPM_P2
2021/12/20 00:02:14;;;;;;;20.20;13.67;;;7.40;99.90;;;;;;5055532;28;20242;-63
2021/12/20 00:04:41;;;;;;;18.70;13.40;;;7.20;99.90;;;;;;5055422;28;20283;-63
2021/12/20 00:07:08;;;;;;;22.17;14.97;;;7.20;99.90;;;;;;5054891;28;20669;-64
2021/12/20 00:09:36;;;;;;;17.20;13.20;;;7.30;99.90;;;;;;5055319;28;20221;-64
2021/12/20 00:12:03;;;;;;;19.70;13.83;;;7.40;99.90;;;;;;5055229;28;20259;-64
2021/12/20 00:14:30;;;;;;;19.67;13.37;;;7.50;99.90;;;;;;5054998;28;20770;-64
2021/12/20 00:16:57;;;;;;;21.80;14.70;;;7.50;99.90;;;;;;5054836;28;20340;-63
2021/12/20 00:19:25;;;;;;;19.67;13.27;;;7.60;99.90;;;;;;5054908;28;20735;-63
2021/12/20 00:21:51;;;;;;;21.63;14.07;;;7.60;99.90;;;;;;5054806;28;20316;-63
2021/12/20 00:24:19;;;;;;;18.60;13.80;;;7.60;99.90;;;;;;5054976;28;20665;-63
2021/12/20 00:26:47;;;;;;;21.60;14.50;;;7.60;99.90;;;;;;5054743;28;20213;-63
2021/12/20 00:29:14;;;;;;;22.40;15.37;;;7.50;99.90;;;;;;5055053;28;20221;-63
2021/12/20 00:31:40;;;;;;;20.10;14.80;;;7.50;99.90;;;;;;5054604;28;20213;-63
2021/12/20 00:34:07;;;;;;;24.47;16.07;;;7.50;99.90;;;;;;5054609;28;20716;-63
2021/12/20 00:36:34;;;;;;;19.07;14.40;;;7.50;99.90;;;;;;5054457;28;20267;-63
2021/12/20 00:41:46;;;;;;;23.73;16.27;;;7.50;99.90;;;;;;5054589;28;20683;-64
2021/12/20 00:44:13;;;;;;;22.37;14.80;;;7.30;99.90;;;;;;5054416;28;20232;-63
2021/12/20 00:46:39;;;;;;;20.93;14.27;;;7.30;99.90;;;;;;5054174;28;20205;-63
2021/12/20 00:49:06;;;;;;;20.10;14.03;;;7.30;99.90;;;;;;5054518;28;20217;-63
2021/12/20 00:51:33;;;;;;;22.13;14.73;;;7.30;99.90;;;;;;5053571;28;20205;-63
2021/12/20 00:54:00;;;;;;;21.90;14.80;;;7.40;99.90;;;;;;5054581;28;20225;-63
2021/12/20 00:56:26;;;;;;;21.40;14.20;;;7.30;99.90;;;;;;5054184;28;20201;-64
2021/12/20 00:58:54;;;;;;;22.07;14.83;;;7.30;99.90;;;;;;5054270;28;20201;-64
2021/12/20 01:01:21;;;;;;;22.03;15.70;;;7.20;99.90;;;;;;5054223;28;20217;-64
2021/12/20 01:03:48;;;;;;;23.40;15.57;;;7.20;99.90;;;;;;5054074;28;20720;-63
2021/12/20 01:06:15;;;;;;;20.30;14.03;;;7.20;99.90;;;;;;5057016;28;20629;-64
2021/12/20 01:08:42;;;;;;;22.63;15.53;;;7.20;99.90;;;;;;5060711;28;20225;-63
2021/12/20 01:11:09;;;;;;;20.70;14.53;;;7.00;99.90;;;;;;5060757;28;20202;-64
2021/12/20 01:13:40;;;;;;;19.93;14.17;;;7.00;99.90;;;;;;5057821;28;20213;-63
2021/12/20 01:16:12;;;;;;;20.70;13.43;;;7.00;99.90;;;;;;5055121;28;20274;-63
2021/12/20 01:18:39;;;;;;;22.43;15.40;;;7.10;99.90;;;;;;5054722;28;20627;-64
2021/12/20 01:21:05;;;;;;;20.73;15.37;;;6.90;99.90;;;;;;5054439;28;20639;-64
2021/12/20 01:23:32;;;;;;;21.40;15.03;;;6.80;99.90;;;;;;5054202;28;20206;-64
2021/12/20 01:25:59;;;;;;;20.73;15.10;;;6.90;99.90;;;;;;5054015;28;20259;-64
2021/12/20 01:28:25;;;;;;;23.47;15.67;;;7.00;99.90;;;;;;5054214;28;20222;-64
2021/12/20 01:30:52;;;;;;;22.23;14.60;;;7.00;99.90;;;;;;5053721;28;20209;-64
2021/12/20 01:33:20;;;;;;;20.43;14.67;;;7.10;99.90;;;;;;5053703;28;20267;-63
2021/12/20 01:35:47;;;;;;;23.13;15.53;;;7.20;99.90;;;;;;5053698;28;20213;-64
2021/12/20 01:38:14;;;;;;;20.27;14.93;;;7.30;99.90;;;;;;5053854;28;20209;-64
2021/12/20 01:40:41;;;;;;;20.40;14.77;;;7.20;99.90;;;;;;5053714;28;20210;-64
2021/12/20 01:43:10;;;;;;;23.77;15.80;;;7.20;99.90;;;;;;5053597;28;20581;-64
2021/12/20 01:45:37;;;;;;;22.57;14.63;;;7.20;99.90;;;;;;5053253;28;20226;-63
2021/12/20 01:48:07;;;;;;;19.93;14.30;;;7.30;99.90;;;;;;5053260;28;20210;-64
2021/12/20 01:50:49;;;;;;;20.33;14.20;;;7.30;99.90;;;;;;5053309;28;20665;-64
2021/12/20 01:53:20;;;;;;;25.20;15.23;;;7.30;99.90;;;;;;5053160;28;20665;-64
2021/12/20 01:55:47;;;;;;;23.03;15.60;;;7.40;99.90;;;;;;5052975;28;20896;-64
2021/12/20 01:58:14;;;;;;;23.83;16.10;;;7.20;99.90;;;;;;5053480;28;20209;-64
2021/12/20 02:03:21;;;;;;;25.27;15.30;;;7.20;99.90;;;;;;5052730;28;20573;-63
2021/12/20 02:05:55;;;;;;;20.77;15.23;;;7.40;99.90;;;;;;5052888;28;20212;-64
2021/12/20 02:08:23;;;;;;;24.37;15.13;;;7.20;99.90;;;;;;5053232;28;20186;-63
2021/12/20 02:10:53;;;;;;;22.80;15.53;;;7.20;99.90;;;;;;5053173;28;20208;-64
2021/12/20 02:13:21;;;;;;;19.27;13.27;;;7.10;99.90;;;;;;5053149;28;20216;-64
2021/12/20 02:15:48;;;;;;;20.73;15.53;;;7.10;99.90;;;;;;5052770;28;20205;-64
2021/12/20 02:18:14;;;;;;;21.17;14.57;;;7.20;99.90;;;;;;5053256;28;20683;-64
2021/12/20 02:20:43;;;;;;;20.73;14.23;;;7.20;99.90;;;;;;5052543;28;20593;-64
2021/12/20 02:23:09;;;;;;;21.07;14.37;;;7.20;99.90;;;;;;5052837;28;20209;-65
2021/12/20 02:25:37;;;;;;;20.60;14.03;;;7.00;99.90;;;;;;5052505;28;20225;-64
2021/12/20 02:28:06;;;;;;;21.50;14.33;;;7.00;99.90;;;;;;5052580;28;20206;-64
2021/12/20 02:30:48;;;;;;;21.90;15.07;;;7.20;99.90;;;;;;5052376;28;20235;-64
2021/12/20 02:38:46;;;;;;;22.73;14.00;;;6.60;99.90;;;;;;5052591;28;20205;-64
2021/12/20 02:41:16;;;;;;;21.63;14.50;;;6.50;99.90;;;;;;5052393;28;20209;-64
2021/12/20 02:43:52;;;;;;;23.53;15.40;;;6.40;99.90;;;;;;5052486;28;20234;-64
2021/12/20 02:46:31;;;;;;;21.13;14.30;;;6.50;99.90;;;;;;5052144;28;20211;-64
2021/12/20 02:48:59;;;;;;;21.03;14.90;;;6.70;99.90;;;;;;5052322;28;20684;-64
2021/12/20 02:51:27;;;;;;;21.67;14.80;;;6.60;99.90;;;;;;5052582;28;20214;-64
2021/12/20 02:53:55;;;;;;;21.30;14.37;;;6.70;99.90;;;;;;5052141;28;20226;-64
2021/12/20 02:56:23;;;;;;;21.90;14.57;;;6.80;99.90;;;;;;5051983;28;20630;-64
2021/12/20 02:58:50;;;;;;;21.03;13.60;;;6.90;99.90;;;;;;5052229;28;20259;-64
2021/12/20 03:01:17;;;;;;;20.87;14.73;;;6.90;99.90;;;;;;5052287;28;20669;-64
2021/12/20 03:03:45;;;;;;;21.40;14.47;;;6.70;99.90;;;;;;5051906;28;20283;-64
2021/12/20 03:06:15;;;;;;;20.60;14.10;;;6.40;99.90;;;;;;5051860;28;20673;-64
2021/12/20 03:08:45;;;;;;;23.00;14.40;;;6.10;99.90;;;;;;5052065;28;20232;-64
2021/12/20 03:11:12;;;;;;;19.90;13.90;;;5.90;99.90;;;;;;5052442;28;20216;-64
2021/12/20 03:13:40;;;;;;;23.17;15.13;;;5.70;99.90;;;;;;5052025;28;20233;-64
2021/12/20 03:16:07;;;;;;;21.77;14.90;;;5.70;99.90;;;;;;5051248;28;20661;-64
2021/12/20 03:18:33;;;;;;;23.43;15.20;;;5.90;99.90;;;;;;5051940;28;20209;-63
2021/12/20 03:21:00;;;;;;;23.13;15.10;;;6.20;99.90;;;;;;5051924;28;20210;-63
2021/12/20 03:23:27;;;;;;;24.13;15.13;;;6.40;99.90;;;;;;5052128;28;20205;-63
2021/12/20 03:25:55;;;;;;;22.60;16.07;;;6.40;99.90;;;;;;5052084;28;20235;-63
2021/12/20 03:28:22;;;;;;;23.73;15.50;;;6.50;99.90;;;;;;5051996;28;20205;-64
2021/12/20 03:30:49;;;;;;;21.83;14.83;;;6.60;99.90;;;;;;5051920;28;20287;-65
2021/12/20 03:33:16;;;;;;;21.07;14.30;;;6.60;99.90;;;;;;5051747;28;20213;-63
2021/12/20 03:35:43;;;;;;;20.57;14.37;;;6.70;99.90;;;;;;5051634;28;20213;-63
2021/12/20 03:38:09;;;;;;;21.87;15.43;;;6.70;99.90;;;;;;5051500;28;20212;-64
2021/12/20 03:40:37;;;;;;;23.13;14.90;;;6.70;99.90;;;;;;5051633;28;20255;-63
2021/12/20 03:43:05;;;;;;;19.17;14.57;;;6.80;99.90;;;;;;5051731;28;20213;-63
2021/12/20 03:45:33;;;;;;;23.87;15.27;;;6.90;99.90;;;;;;5051949;28;20233;-64
2021/12/20 03:47:59;;;;;;;23.73;16.00;;;7.00;99.90;;;;;;5051479;28;20205;-63
2021/12/20 03:50:27;;;;;;;24.17;14.20;;;7.00;99.90;;;;;;5051740;28;20218;-63
2021/12/20 03:52:54;;;;;;;21.47;14.40;;;7.10;99.90;;;;;;5051878;28;20210;-63
2021/12/20 03:55:21;;;;;;;22.17;14.73;;;7.20;99.90;;;;;;5051751;28;20229;-64
2021/12/20 03:57:47;;;;;;;22.87;15.17;;;7.10;99.90;;;;;;5051229;28;20669;-63
2021/12/20 04:00:17;;;;;;;21.57;14.90;;;7.00;99.90;;;;;;5051699;28;20205;-64
2021/12/20 04:02:46;;;;;;;24.00;16.33;;;7.00;99.90;;;;;;5051563;28;20208;-63
2021/12/20 04:05:14;;;;;;;23.43;15.13;;;7.00;99.90;;;;;;5051326;28;20245;-63
2021/12/20 04:07:41;;;;;;;21.57;15.53;;;7.00;99.90;;;;;;5051186;28;20251;-63
2021/12/20 04:10:09;;;;;;;23.63;15.83;;;7.10;99.90;;;;;;5051577;28;20237;-63
2021/12/20 04:12:36;;;;;;;21.73;14.60;;;7.10;99.90;;;;;;5051414;28;20210;-63
2021/12/20 04:15:05;;;;;;;21.20;14.47;;;7.20;99.90;;;;;;5051274;28;20256;-63
2021/12/20 04:17:33;;;;;;;23.70;15.40;;;7.30;99.90;;;;;;5051200;28;20236;-64
2021/12/20 04:20:00;;;;;;;25.13;15.77;;;7.40;99.90;;;;;;5051711;28;20206;-63
2021/12/20 04:22:26;;;;;;;22.73;15.20;;;7.40;99.90;;;;;;5051462;28;20270;-63
2021/12/20 04:24:53;;;;;;;20.43;14.20;;;7.40;99.90;;;;;;5051272;28;20241;-63
2021/12/20 04:27:20;;;;;;;23.53;15.37;;;7.40;99.90;;;;;;5052149;28;20259;-64
2021/12/20 04:29:47;;;;;;;20.67;14.47;;;7.40;99.90;;;;;;5054691;28;20222;-64
2021/12/20 04:32:14;;;;;;;20.53;14.90;;;7.40;99.90;;;;;;5055016;28;20267;-63
2021/12/20 04:34:43;;;;;;;21.37;13.87;;;7.40;99.90;;;;;;5054931;28;20228;-64
2021/12/20 04:37:09;;;;;;;21.27;14.43;;;7.40;99.90;;;;;;5054659;28;20263;-63
2021/12/20 04:39:36;;;;;;;20.00;14.00;;;7.30;99.90;;;;;;5054718;28;20202;-63
2021/12/20 04:42:03;;;;;;;25.90;15.27;;;7.20;99.90;;;;;;5054600;28;20673;-63
2021/12/20 04:44:30;;;;;;;20.83;14.63;;;7.20;99.90;;;;;;5054646;28;20233;-63
2021/12/20 04:46:57;;;;;;;22.73;14.77;;;7.30;99.90;;;;;;5054474;28;20228;-63
2021/12/20 04:49:24;;;;;;;20.60;14.20;;;7.30;99.90;;;;;;5054506;28;20226;-63
2021/12/20 04:51:53;;;;;;;22.77;15.83;;;7.30;99.90;;;;;;5054791;28;20285;-63
2021/12/20 04:54:20;;;;;;;24.40;15.50;;;7.30;99.90;;;;;;5054343;28;20727;-64
2021/12/20 04:56:46;;;;;;;23.03;15.60;;;7.20;99.90;;;;;;5053926;28;20582;-63
2021/12/20 04:59:13;;;;;;;21.03;15.13;;;7.30;99.90;;;;;;5054191;28;20213;-63
2021/12/20 05:01:40;;;;;;;21.77;15.27;;;7.30;99.90;;;;;;5054367;28;20624;-64
2021/12/20 05:04:07;;;;;;;28.87;19.40;;;7.30;99.90;;;;;;5070085;22;20235;-64
2021/12/20 05:06:34;;;;;;;24.40;16.00;;;7.40;99.90;;;;;;5014381;28;20203;-63
2021/12/20 05:09:04;;;;;;;22.83;15.20;;;7.30;99.90;;;;;;5014588;28;20301;-64
2021/12/20 05:11:33;;;;;;;25.60;16.23;;;7.30;99.90;;;;;;5014439;28;20215;-63
2021/12/20 05:14:00;;;;;;;24.67;15.40;;;7.20;99.90;;;;;;5014733;28;20233;-63
2021/12/20 05:16:27;;;;;;;23.10;15.07;;;7.20;99.90;;;;;;5014919;28;20209;-64
2021/12/20 05:18:54;;;;;;;21.40;14.73;;;7.20;99.90;;;;;;5014814;28;20203;-63
2021/12/20 05:21:20;;;;;;;23.33;15.67;;;7.00;99.90;;;;;;5014653;28;20549;-63
2021/12/20 05:23:47;;;;;;;20.27;13.87;;;6.70;99.90;;;;;;5014378;28;20206;-63
2021/12/20 05:26:16;;;;;;;22.67;15.17;;;6.70;99.90;;;;;;5013772;28;20217;-63
2021/12/20 05:28:42;;;;;;;22.70;14.77;;;6.60;99.90;;;;;;5014347;28;20210;-63
2021/12/20 05:31:09;;;;;;;20.90;13.93;;;6.50;99.90;;;;;;5014159;28;20231;-63
2021/12/20 05:33:36;;;;;;;22.63;14.87;;;6.50;99.90;;;;;;5014430;28;20291;-63
2021/12/20 05:36:04;;;;;;;22.93;14.33;;;6.30;99.90;;;;;;5013475;28;20211;-63
2021/12/20 05:38:30;;;;;;;20.97;14.40;;;6.40;99.90;;;;;;5013522;28;20206;-63
2021/12/20 05:40:57;;;;;;;24.73;15.63;;;6.50;99.90;;;;;;5014202;28;20210;-63
2021/12/20 05:43:25;;;;;;;25.80;15.93;;;6.60;99.90;;;;;;5014226;28;20211;-63
2021/12/20 05:45:52;;;;;;;23.07;15.63;;;6.70;99.90;;;;;;5014066;28;20444;-64
2021/12/20 05:48:18;;;;;;;24.37;15.90;;;6.80;99.90;;;;;;5013709;28;20203;-63
2021/12/20 05:50:45;;;;;;;23.63;15.77;;;7.00;99.90;;;;;;5014636;28;20230;-63
2021/12/20 05:53:12;;;;;;;21.83;14.87;;;7.00;99.90;;;;;;5013804;28;20211;-63
2021/12/20 05:55:39;;;;;;;22.63;15.23;;;6.90;99.90;;;;;;5014444;28;20255;-63
2021/12/20 05:58:05;;;;;;;23.97;16.60;;;6.90;99.90;;;;;;5013379;28;20675;-64
2021/12/20 06:00:34;;;;;;;24.10;16.17;;;7.00;99.90;;;;;;5013976;28;20207;-63
2021/12/20 06:03:00;;;;;;;24.10;15.77;;;7.10;99.90;;;;;;5013618;28;20203;-63
2021/12/20 06:05:27;;;;;;;21.73;15.83;;;7.20;99.90;;;;;;5013557;28;20241;-63
2021/12/20 06:07:53;;;;;;;23.77;16.17;;;7.30;99.90;;;;;;5014291;28;20203;-63
2021/12/20 06:10:20;;;;;;;23.33;15.20;;;7.40;99.90;;;;;;5013757;28;20226;-63
2021/12/20 06:12:47;;;;;;;22.33;15.13;;;7.50;99.90;;;;;;5013553;28;20242;-63
2021/12/20 06:15:14;;;;;;;26.87;16.40;;;7.50;99.90;;;;;;5013545;28;20219;-65
2021/12/20 06:17:43;;;;;;;42.83;27.77;;;7.60;99.90;;;;;;5013388;28;20206;-63
2021/12/20 06:20:12;;;;;;;26.57;18.17;;;7.60;99.90;;;;;;5013198;28;20207;-63
2021/12/20 06:22:38;;;;;;;31.40;20.90;;;7.60;99.90;;;;;;5013617;28;20203;-64
2021/12/20 06:25:07;;;;;;;24.13;16.60;;;7.70;99.90;;;;;;5013238;28;20288;-63
2021/12/20 06:27:34;;;;;;;24.17;16.70;;;7.70;99.90;;;;;;5012751;28;20211;-63
2021/12/20 06:30:01;;;;;;;22.93;14.97;;;7.80;99.90;;;;;;5012848;28;20230;-64
2021/12/20 06:32:28;;;;;;;28.90;17.40;;;7.80;99.90;;;;;;5013142;28;20207;-63
2021/12/20 06:34:56;;;;;;;25.67;17.23;;;7.80;99.90;;;;;;5013052;28;20231;-63
2021/12/20 06:37:23;;;;;;;24.47;16.43;;;7.80;99.90;;;;;;5012996;28;20285;-63
2021/12/20 06:39:50;;;;;;;22.77;15.70;;;7.80;99.90;;;;;;5012822;28;20222;-63
2021/12/20 06:42:16;;;;;;;27.13;18.07;;;7.70;99.90;;;;;;5012473;28;20210;-63
2021/12/20 06:44:43;;;;;;;22.97;16.83;;;7.70;99.90;;;;;;5012723;28;20258;-63
2021/12/20 06:47:10;;;;;;;26.37;17.37;;;7.60;99.90;;;;;;5012311;28;20293;-63
2021/12/20 06:49:37;;;;;;;25.63;17.00;;;7.60;99.90;;;;;;5011667;28;20285;-62
2021/12/20 06:52:05;;;;;;;24.03;16.63;;;7.60;99.90;;;;;;5012913;28;20211;-63
2021/12/20 06:54:32;;;;;;;25.43;17.07;;;7.60;99.90;;;;;;5013246;28;20230;-63
2021/12/20 06:56:59;;;;;;;27.00;16.50;;;7.50;99.90;;;;;;5013235;28;20206;-64
2021/12/20 06:59:25;;;;;;;25.97;16.83;;;7.50;99.90;;;;;;5012920;28;20665;-64
2021/12/20 07:01:52;;;;;;;24.57;16.40;;;7.60;99.90;;;;;;5013274;28;20198;-63
2021/12/20 07:04:19;;;;;;;24.93;16.27;;;7.50;99.90;;;;;;5013361;28;20246;-63
2021/12/20 07:06:45;;;;;;;25.83;16.37;;;7.40;99.90;;;;;;5013014;28;20210;-63
2021/12/20 07:09:14;;;;;;;23.70;15.73;;;7.40;99.90;;;;;;5013010;28;20289;-63
2021/12/20 07:11:42;;;;;;;23.47;16.20;;;7.20;99.90;;;;;;5012439;28;20226;-63
2021/12/20 07:14:09;;;;;;;21.93;15.00;;;7.20;99.90;;;;;;5012510;28;20223;-63
2021/12/20 07:16:36;;;;;;;22.77;15.97;;;7.20;99.90;;;;;;5012210;28;20556;-65
2021/12/20 07:19:05;;;;;;;23.43;15.93;;;7.20;99.90;;;;;;5012510;28;20218;-63
2021/12/20 07:21:31;;;;;;;24.27;15.90;;;7.20;99.90;;;;;;5011993;28;20230;-63
2021/12/20 07:23:58;;;;;;;25.07;16.17;;;7.30;99.90;;;;;;5009449;28;20252;-58
2021/12/20 07:26:26;;;;;;;21.53;15.73;;;7.30;99.90;;;;;;5012172;28;20206;-58
2021/12/20 07:28:53;;;;;;;21.87;15.27;;;7.30;99.90;;;;;;5012042;28;20671;-58
2021/12/20 07:31:21;;;;;;;23.93;16.40;;;7.40;99.90;;;;;;5011862;28;20226;-62
2021/12/20 07:33:48;;;;;;;21.30;14.70;;;7.40;99.90;;;;;;5011836;28;20211;-61
2021/12/20 07:36:18;;;;;;;25.00;16.53;;;7.40;99.90;;;;;;5011912;28;20557;-61
2021/12/20 07:38:45;;;;;;;25.03;15.30;;;7.40;99.90;;;;;;5012352;28;20207;-62
2021/12/20 07:41:12;;;;;;;25.20;16.20;;;7.40;99.90;;;;;;5012115;28;20199;-60
2021/12/20 07:43:40;;;;;;;23.90;16.40;;;7.50;99.90;;;;;;5012192;28;20214;-60
2021/12/20 07:46:07;;;;;;;23.90;15.70;;;7.40;99.90;;;;;;5012214;28;20234;-60
2021/12/20 07:48:33;;;;;;;25.17;16.57;;;7.40;99.90;;;;;;5011915;28;20257;-60
2021/12/20 07:51:01;;;;;;;29.70;17.00;;;7.40;99.90;;;;;;5011753;28;20272;-60
2021/12/20 07:53:28;;;;;;;24.67;17.07;;;7.40;99.90;;;;;;5012040;28;20277;-60
2021/12/20 07:55:55;;;;;;;23.40;15.57;;;7.30;99.90;;;;;;5012033;28;20235;-60
2021/12/20 07:58:21;;;;;;;23.40;16.73;;;7.30;99.90;;;;;;5011774;28;20623;-60
2021/12/20 08:00:50;;;;;;;26.37;17.30;;;7.40;99.90;;;;;;5012674;28;20202;-60
2021/12/20 08:03:17;;;;;;;25.73;17.03;;;7.40;99.90;;;;;;5015822;28;20299;-64
2021/12/20 08:05:44;;;;;;;26.10;16.80;;;7.50;99.90;;;;;;5015473;28;20238;-59
2021/12/20 08:08:12;;;;;;;26.13;17.13;;;7.60;99.90;;;;;;5015648;28;20257;-60
2021/12/20 08:10:39;;;;;;;24.77;16.53;;;7.60;99.90;;;;;;5015398;28;20277;-59
2021/12/20 08:13:07;;;;;;;21.43;14.83;;;7.70;99.90;;;;;;5015316;28;20214;-60
2021/12/20 08:15:33;;;;;;;24.73;16.20;;;7.80;99.90;;;;;;5015458;28;20618;-60
2021/12/20 08:18:01;;;;;;;24.73;17.47;;;7.90;99.90;;;;;;5014896;28;20207;-59
2021/12/20 08:20:28;;;;;;;26.00;19.23;;;8.00;99.90;;;;;;5015374;28;20203;-57
2021/12/20 08:22:55;;;;;;;23.73;16.37;;;8.00;99.90;;;;;;5015407;28;20334;-56
2021/12/20 08:25:22;;;;;;;24.10;16.07;;;8.10;99.90;;;;;;5015006;28;20249;-58
2021/12/20 08:27:50;;;;;;;23.00;16.03;;;8.00;99.90;;;;;;5014880;28;20215;-58
2021/12/20 08:30:18;;;;;;;26.77;16.83;;;8.10;99.90;;;;;;5015100;28;20269;-57
2021/12/20 08:32:45;;;;;;;23.40;16.10;;;8.20;99.90;;;;;;5015101;28;20700;-58
2021/12/20 08:35:14;;;;;;;22.10;15.67;;;8.20;99.90;;;;;;5014896;28;20223;-58
2021/12/20 08:37:41;;;;;;;23.60;16.43;;;8.20;99.90;;;;;;5014480;28;20623;-58
2021/12/20 08:40:11;;;;;;;25.00;17.13;;;8.20;99.90;;;;;;5015111;28;20285;-57
2021/12/20 08:42:39;;;;;;;22.50;16.50;;;8.20;99.90;;;;;;5014990;28;20253;-57
2021/12/20 08:45:07;;;;;;;24.20;16.30;;;8.20;99.90;;;;;;5014806;28;20222;-58
2021/12/20 08:47:33;;;;;;;21.73;16.07;;;8.30;99.90;;;;;;5014765;28;20254;-58
2021/12/20 08:50:00;;;;;;;26.30;16.27;;;8.30;99.90;;;;;;5015064;28;20634;-57
2021/12/20 08:52:28;;;;;;;25.50;16.10;;;8.40;99.90;;;;;;5014767;28;20253;-58
2021/12/20 08:54:55;;;;;;;24.03;16.47;;;8.50;99.90;;;;;;5014727;28;20628;-58
2021/12/20 08:57:22;;;;;;;23.10;16.13;;;8.60;99.90;;;;;;5014337;28;20213;-58
2021/12/20 08:59:49;;;;;;;27.57;17.27;;;8.60;99.90;;;;;;5014374;28;20210;-59
2021/12/20 09:02:15;;;;;;;24.13;17.07;;;8.80;99.90;;;;;;5014637;28;20203;-58
2021/12/20 09:04:42;;;;;;;25.43;17.13;;;8.80;99.90;;;;;;5014154;28;20239;-58
2021/12/20 09:07:14;;;;;;;25.80;17.90;;;8.80;99.90;;;;;;5014266;28;20214;-57
2021/12/20 09:09:44;;;;;;;26.57;17.83;;;8.90;99.90;;;;;;5014664;28;20290;-58
2021/12/20 09:12:12;;;;;;;26.97;17.73;;;8.90;99.90;;;;;;5014070;28;20223;-59
2021/12/20 09:14:39;;;;;;;24.57;16.87;;;8.90;99.90;;;;;;5014103;28;20223;-58
2021/12/20 09:17:06;;;;;;;26.37;18.07;;;8.90;99.90;;;;;;5014052;28;20277;-58
2021/12/20 09:19:35;;;;;;;23.93;16.80;;;9.00;99.90;;;;;;5014147;28;20721;-59
2021/12/20 09:22:04;;;;;;;25.40;17.20;;;9.00;99.90;;;;;;5014486;28;20203;-57
2021/12/20 09:24:31;;;;;;;23.27;15.70;;;9.10;99.90;;;;;;5014412;28;20227;-59
2021/12/20 09:26:59;;;;;;;23.33;15.90;;;9.10;99.90;;;;;;5013860;28;20206;-58
2021/12/20 09:29:26;;;;;;;23.90;15.90;;;9.20;99.90;;;;;;5014023;28;20207;-58
2021/12/20 09:31:52;;;;;;;20.97;14.40;;;9.20;99.90;;;;;;5013796;28;20703;-58
2021/12/20 09:34:19;;;;;;;24.73;16.73;;;9.10;99.90;;;;;;5013795;28;20722;-58
2021/12/20 09:36:46;;;;;;;22.53;15.83;;;9.00;99.90;;;;;;5013580;28;20207;-58
2021/12/20 09:39:16;;;;;;;24.20;16.53;;;9.00;99.90;;;;;;5013737;28;20211;-58
2021/12/20 09:42:01;;;;;;;25.90;16.47;;;8.90;99.90;;;;;;5013659;28;20257;-58
2021/12/20 09:44:29;;;;;;;26.17;17.67;;;9.00;99.90;;;;;;5013482;28;20227;-59
2021/12/20 09:46:57;;;;;;;24.33;16.50;;;8.80;99.90;;;;;;5013508;28;20213;-57
2021/12/20 09:49:24;;;;;;;21.93;15.37;;;8.20;99.90;;;;;;5013600;28;20203;-58
2021/12/20 09:51:52;;;;;;;21.90;14.70;;;7.90;99.90;;;;;;5013648;28;20234;-57
2021/12/20 09:54:19;;;;;;;25.83;16.37;;;7.80;99.90;;;;;;5013314;28;20710;-57
2021/12/20 09:56:46;;;;;;;23.80;15.17;;;7.90;99.90;;;;;;5013090;28;20306;-58
2021/12/20 09:59:20;;;;;;;22.90;15.03;;;7.90;99.90;;;;;;5013619;28;20290;-58
2021/12/20 10:01:49;;;;;;;22.90;15.10;;;8.10;99.90;;;;;;5013592;28;20225;-57
2021/12/20 10:04:18;;;;;;;21.77;14.70;;;8.20;99.90;;;;;;5013046;28;20712;-57
2021/12/20 10:06:45;;;;;;;22.10;14.27;;;8.00;99.90;;;;;;5013021;28;20206;-56
2021/12/20 10:09:14;;;;;;;20.37;14.13;;;7.90;99.90;;;;;;5013223;28;20207;-57
2021/12/20 10:11:43;;;;;;;20.67;12.67;;;8.10;99.90;;;;;;5012943;28;20262;-57
2021/12/20 10:14:12;;;;;;;17.10;11.77;;;8.30;99.90;;;;;;5013230;28;20330;-58
2021/12/20 10:16:41;;;;;;;19.50;12.73;;;8.50;99.90;;;;;;5012764;28;20211;-57
2021/12/20 10:19:28;;;;;;;19.30;12.93;;;8.60;99.90;;;;;;5012940;28;20679;-57
2021/12/20 10:21:56;;;;;;;18.00;12.43;;;8.70;99.90;;;;;;5012963;28;20298;-57
2021/12/20 10:24:31;;;;;;;20.40;13.07;;;8.80;99.90;;;;;;5013340;28;20227;-58
2021/12/20 10:26:57;;;;;;;21.70;13.27;;;8.80;99.90;;;;;;5013088;28;20213;-57
2021/12/20 10:29:24;;;;;;;19.67;12.47;;;8.80;99.90;;;;;;5013206;28;20478;-59
2021/12/20 10:31:53;;;;;;;20.23;13.17;;;8.80;99.90;;;;;;5013080;28;20231;-57
2021/12/20 10:34:31;;;;;;;16.47;10.60;;;8.80;99.90;;;;;;5013270;28;20325;-57
2021/12/20 10:36:59;;;;;;;16.77;11.40;;;8.70;99.90;;;;;;5012971;28;20207;-57
2021/12/20 10:39:34;;;;;;;16.13;10.50;;;8.70;99.90;;;;;;5012924;28;20241;-57
2021/12/20 10:42:14;;;;;;;19.47;11.40;;;8.60;99.90;;;;;;5012798;28;20210;-57
2021/12/20 10:44:41;;;;;;;17.97;11.33;;;8.60;99.90;;;;;;5013196;28;20265;-57
2021/12/20 10:47:08;;;;;;;16.07;11.13;;;8.70;99.90;;;;;;5012294;28;20576;-57
2021/12/20 10:49:38;;;;;;;16.60;11.13;;;8.70;99.90;;;;;;5012896;28;20218;-57
2021/12/20 10:52:06;;;;;;;18.13;11.37;;;8.60;99.90;;;;;;5012510;28;20726;-58
2021/12/20 10:54:43;;;;;;;16.10;11.37;;;8.60;99.90;;;;;;5012294;28;20583;-58
2021/12/20 10:57:11;;;;;;;18.83;11.90;;;8.70;99.90;;;;;;5012480;28;20245;-58
2021/12/20 10:59:38;;;;;;;19.33;11.23;;;8.80;99.90;;;;;;5012485;28;20206;-58
2021/12/20 11:04:59;;;;;;;14.90;10.50;;;9.00;99.90;;;;;;5042690;22;20240;-62
2021/12/20 11:10:10;;;;;;;18.13;10.70;;;9.10;99.90;;;;;;5052127;28;20205;-62
2021/12/20 11:12:37;;;;;;;17.60;11.20;;;9.00;99.90;;;;;;5051674;28;20656;-62
2021/12/20 11:15:07;;;;;;;19.40;11.73;;;8.90;99.90;;;;;;5042212;28;20233;-62
2021/12/20 11:17:34;;;;;;;17.27;11.07;;;8.80;99.90;;;;;;5031643;28;20218;-61
2021/12/20 11:20:03;;;;;;;17.27;11.03;;;8.80;99.90;;;;;;5031702;28;20202;-61
2021/12/20 11:22:31;;;;;;;15.27;10.07;;;8.80;99.90;;;;;;5031296;28;20686;-61
2021/12/20 11:25:00;;;;;;;14.63;9.80;;;8.80;99.90;;;;;;5031492;28;20237;-61
2021/12/20 11:27:30;;;;;;;13.07;8.60;;;8.70;99.90;;;;;;5031760;28;20202;-62
2021/12/20 11:29:58;;;;;;;18.10;11.07;;;8.70;99.90;;;;;;5030990;28;20902;-61
2021/12/20 11:32:26;;;;;;;18.40;10.27;;;8.60;99.90;;;;;;5050696;28;20249;-61
2021/12/20 11:34:53;;;;;;;13.70;8.40;;;8.60;99.90;;;;;;5050981;28;20275;-61
2021/12/20 11:37:25;;;;;;;12.77;7.50;;;8.50;99.90;;;;;;5053914;28;20696;-61
2021/12/20 11:39:53;;;;;;;9.60;6.40;;;8.40;99.90;;;;;;5055278;28;20209;-61
2021/12/20 11:42:20;;;;;;;11.30;6.63;;;8.40;99.90;;;;;;5055293;28;20204;-62
2021/12/20 11:44:48;;;;;;;12.20;7.47;;;8.30;99.90;;;;;;5055587;28;20265;-60
2021/12/20 11:47:22;;;;;;;11.43;6.83;;;8.40;99.90;;;;;;5054892;28;20262;-60
2021/12/20 11:49:56;;;;;;;11.80;6.80;;;8.50;99.90;;;;;;5055557;28;20209;-60
2021/12/20 11:52:24;;;;;;;11.83;6.13;;;8.60;99.90;;;;;;5055416;28;20260;-61
2021/12/20 11:54:53;;;;;;;12.33;5.70;;;8.70;99.90;;;;;;5055301;28;20228;-61
2021/12/20 11:57:35;;;;;;;12.10;5.90;;;8.80;99.90;;;;;;5054972;28;20210;-60
2021/12/20 12:00:06;;;;;;;8.23;5.13;;;8.90;99.90;;;;;;5055460;28;20255;-61
2021/12/20 12:02:39;;;;;;;9.30;4.47;;;9.00;99.90;;;;;;5055424;28;20209;-60
2021/12/20 12:05:09;;;;;;;8.57;4.90;;;9.20;99.90;;;;;;5055008;28;20237;-61
2021/12/20 12:07:38;;;;;;;11.20;4.97;;;9.40;99.90;;;;;;5054647;28;20589;-63
2021/12/20 12:10:07;;;;;;;8.97;4.57;;;9.60;99.90;;;;;;5054691;28;20267;-62
2021/12/20 12:12:40;;;;;;;8.93;4.70;;;9.70;99.90;;;;;;5055060;28;20233;-62
2021/12/20 12:15:09;;;;;;;8.97;4.93;;;9.60;99.90;;;;;;5055083;28;20606;-61
2021/12/20 12:17:54;;;;;;;7.97;4.53;;;9.50;99.90;;;;;;5054701;28;20202;-61
2021/12/20 12:20:40;;;;;;;9.30;4.40;;;9.30;99.90;;;;;;5054833;28;20288;-60
2021/12/20 12:23:16;;;;;;;8.73;4.87;;;9.20;99.90;;;;;;5054830;28;20263;-63
2021/12/20 12:25:45;;;;;;;6.27;4.37;;;9.20;99.90;;;;;;5054697;28;20278;-61
2021/12/20 12:28:12;;;;;;;9.43;4.73;;;9.10;99.90;;;;;;5054440;28;20264;-60
2021/12/20 12:30:41;;;;;;;9.30;4.77;;;9.00;99.90;;;;;;5055122;28;20263;-61
2021/12/20 12:33:32;;;;;;;10.30;5.30;;;8.90;99.90;;;;;;5054384;28;20236;-61
2021/12/20 12:36:19;;;;;;;8.77;4.77;;;8.90;99.90;;;;;;5054671;28;20240;-61
2021/12/20 12:38:57;;;;;;;8.00;4.93;;;8.90;99.90;;;;;;5054185;28;20696;-61
2021/12/20 12:41:26;;;;;;;9.03;4.80;;;8.80;99.90;;;;;;5054157;28;20239;-61
2021/12/20 12:44:19;;;;;;;10.20;4.97;;;8.80;99.90;;;;;;5054448;28;20757;-61
2021/12/20 12:46:53;;;;;;;9.60;4.70;;;8.80;99.90;;;;;;5053991;28;20286;-61
2021/12/20 12:49:48;;;;;;;9.07;4.57;;;9.00;99.90;;;;;;5054073;28;20232;-62
2021/12/20 12:52:41;;;;;;;10.27;4.80;;;9.20;99.90;;;;;;5044114;28;20225;-61
2021/12/20 12:55:30;;;;;;;9.00;3.83;;;9.30;99.90;;;;;;5054116;28;20709;-62
2021/12/20 12:57:59;;;;;;;6.27;3.77;;;9.30;99.90;;;;;;5054497;28;20206;-61
2021/12/20 13:00:31;;;;;;;7.57;4.30;;;9.40;99.90;;;;;;5053958;28;20300;-62
2021/12/20 13:03:08;;;;;;;9.70;4.60;;;9.30;99.90;;;;;;5054259;28;20209;-61